createdAt,value
2018-04-22T00:02:09.715Z,1.30
2018-04-22T00:04:37.184Z,1.10
2018-04-22T00:07:04.627Z,1.20
2018-04-22T00:09:32.192Z,1.10
2018-04-22T00:11:59.743Z,1.30
2018-04-22T00:14:27.309Z,1.10
2018-04-22T00:16:54.752Z,1.10
2018-04-22T00:19:22.211Z,1.30
2018-04-22T00:21:49.660Z,1.20
2018-04-22T00:24:17.126Z,1.30
2018-04-22T00:26:44.575Z,1.13
2018-04-22T00:29:12.023Z,1.30
2018-04-22T00:31:39.475Z,1.30
2018-04-22T00:34:06.947Z,1.20
2018-04-22T00:36:34.395Z,1.30
2018-04-22T00:39:01.874Z,1.37
2018-04-22T00:41:29.415Z,1.20
2018-04-22T00:43:56.867Z,1.20
2018-04-22T00:46:24.316Z,1.27
2018-04-22T00:48:51.767Z,1.20
2018-04-22T00:51:19.214Z,1.53
2018-04-22T00:53:58.509Z,1.10
2018-04-22T00:56:26.038Z,1.17
2018-04-22T00:58:53.487Z,1.20
2018-04-22T01:01:20.931Z,1.00
2018-04-22T01:03:48.403Z,1.20
2018-04-22T01:06:15.852Z,1.50
2018-04-22T01:08:43.320Z,1.30
2018-04-22T01:11:10.770Z,1.13
2018-04-22T01:13:38.233Z,1.20
2018-04-22T01:16:05.678Z,1.57
2018-04-22T01:18:33.126Z,1.40
2018-04-22T01:21:00.600Z,1.53
2018-04-22T01:23:28.160Z,1.20
2018-04-22T01:25:55.602Z,1.30
2018-04-22T01:28:23.057Z,1.20
2018-04-22T01:30:50.499Z,1.20
2018-04-22T01:33:17.979Z,1.30
2018-04-22T01:35:45.431Z,1.00
2018-04-22T01:38:12.876Z,1.10
2018-04-22T01:40:40.347Z,1.10
2018-04-22T01:43:07.799Z,1.20
2018-04-22T01:45:35.672Z,1.20
2018-04-22T01:48:03.227Z,1.10
2018-04-22T01:50:30.676Z,1.10
2018-04-22T01:52:58.138Z,1.27
2018-04-22T01:55:25.580Z,1.13
2018-04-22T01:57:53.026Z,1.10
2018-04-22T02:00:20.517Z,1.30
2018-04-22T02:02:47.959Z,0.90
2018-04-22T02:05:15.430Z,1.00
2018-04-22T02:07:42.876Z,1.07
2018-04-22T02:10:10.327Z,1.10
2018-04-22T02:12:37.775Z,1.07
2018-04-22T02:15:05.247Z,1.30
2018-04-22T02:17:32.806Z,1.17
2018-04-22T02:20:00.359Z,1.30
2018-04-22T02:22:27.807Z,1.10
2018-04-22T02:24:55.273Z,1.10
2018-04-22T02:27:22.715Z,1.20
2018-04-22T02:29:50.176Z,1.20
2018-04-22T02:32:17.624Z,1.10
2018-04-22T02:34:45.095Z,1.00
2018-04-22T02:37:12.554Z,1.10
2018-04-22T02:39:40.107Z,1.13
2018-04-22T02:42:07.576Z,1.00
2018-04-22T02:44:35.024Z,1.20
2018-04-22T02:47:02.471Z,1.10
2018-04-22T02:49:29.933Z,1.37
2018-04-22T02:51:57.380Z,1.20
2018-04-22T02:54:24.844Z,1.10
2018-04-22T02:56:52.299Z,1.20
2018-04-22T02:59:19.761Z,1.20
2018-04-22T03:01:47.199Z,0.93
2018-04-22T03:04:14.651Z,1.30
2018-04-22T03:06:42.122Z,1.17
2018-04-22T03:09:09.684Z,1.00
2018-04-22T03:11:37.139Z,1.20
2018-04-22T03:14:04.591Z,1.10
2018-04-22T03:16:32.035Z,1.33
2018-04-22T03:18:59.491Z,1.20
2018-04-22T03:21:26.940Z,1.20
2018-04-22T03:23:54.419Z,1.10
2018-04-22T03:26:21.864Z,0.93
2018-04-22T03:28:50.031Z,1.20
2018-04-22T03:31:17.493Z,1.10
2018-04-22T03:33:44.960Z,1.07
2018-04-22T03:36:12.415Z,0.90
2018-04-22T03:38:39.860Z,1.20
2018-04-22T03:41:07.319Z,1.30
2018-04-22T03:43:34.783Z,1.10
2018-04-22T03:46:02.347Z,1.20
2018-04-22T03:48:29.788Z,0.90
2018-04-22T03:50:57.239Z,1.03
2018-04-22T03:53:24.683Z,1.20
2018-04-22T03:55:52.163Z,1.27
2018-04-22T03:58:19.611Z,0.90
2018-04-22T04:00:47.075Z,1.27
2018-04-22T04:03:14.535Z,1.20
2018-04-22T04:05:41.987Z,1.20
2018-04-22T04:08:09.436Z,1.10
2018-04-22T04:10:36.899Z,1.00
2018-04-22T04:13:04.347Z,1.10
2018-04-22T04:15:31.815Z,0.90
2018-04-22T04:21:12.909Z,1.03
2018-04-22T04:27:18.986Z,1.20
2018-04-22T04:29:46.435Z,0.97
2018-04-22T04:32:13.886Z,1.20
2018-04-22T04:34:41.344Z,1.00
2018-04-22T04:37:08.791Z,1.00
2018-04-22T04:39:36.267Z,0.90
2018-04-22T04:42:03.723Z,1.03
2018-04-22T04:44:31.179Z,1.00
2018-04-22T04:46:58.643Z,1.00
2018-04-22T04:49:26.087Z,1.10
2018-04-22T04:51:53.556Z,1.00
2018-04-22T04:54:21.026Z,1.20
2018-04-22T04:56:48.452Z,1.20
2018-04-22T04:59:15.895Z,1.10
2018-04-22T05:01:43.371Z,1.07
2018-04-22T05:04:10.815Z,1.20
2018-04-22T05:06:38.280Z,0.90
2018-04-22T05:09:05.728Z,1.00
2018-04-22T05:11:33.174Z,1.10
2018-04-22T05:14:00.623Z,0.87
2018-04-22T05:16:28.079Z,1.00
2018-04-22T05:18:55.528Z,1.27
2018-04-22T05:21:23.015Z,1.00
2018-04-22T05:23:50.455Z,0.90
2018-04-22T05:26:17.935Z,0.90
2018-04-22T05:28:45.377Z,0.83
2018-04-22T05:31:12.879Z,1.10
2018-04-22T05:33:40.294Z,1.03
2018-04-22T05:36:07.743Z,1.00
2018-04-22T05:38:35.207Z,1.13
2018-04-22T05:41:02.771Z,1.00
2018-04-22T05:43:30.223Z,0.97
2018-04-22T05:45:57.671Z,1.20
2018-04-22T05:48:25.124Z,1.00
2018-04-22T05:50:52.578Z,0.90
2018-04-22T05:53:20.020Z,1.20
2018-04-22T05:55:47.473Z,0.90
2018-04-22T05:58:15.236Z,1.10
2018-04-22T06:00:42.692Z,1.17
2018-04-22T06:03:10.184Z,1.03
2018-04-22T06:05:37.644Z,0.80
2018-04-22T06:08:05.088Z,0.90
2018-04-22T06:10:32.544Z,1.10
2018-04-22T06:13:00.411Z,0.90
2018-04-22T06:15:27.871Z,1.10
2018-04-22T06:17:55.424Z,1.27
2018-04-22T06:20:22.884Z,0.97
2018-04-22T06:22:50.491Z,0.90
2018-04-22T06:25:17.894Z,0.83
2018-04-22T06:27:45.352Z,0.90
2018-04-22T06:30:12.885Z,1.00
2018-04-22T06:32:40.333Z,1.00
2018-04-22T06:35:07.819Z,1.00
2018-04-22T06:37:35.383Z,0.90
2018-04-22T06:40:02.835Z,1.00
2018-04-22T06:42:30.295Z,1.00
2018-04-22T06:44:57.740Z,1.10
2018-04-22T06:47:25.202Z,0.93
2018-04-22T06:49:52.663Z,1.00
2018-04-22T06:52:20.119Z,1.07
2018-04-22T06:54:47.571Z,0.93
2018-04-22T06:57:15.139Z,1.00
2018-04-22T06:59:42.588Z,1.17
2018-04-22T07:02:10.040Z,0.90
2018-04-22T07:04:37.500Z,1.00
2018-04-22T07:07:05.057Z,1.07
2018-04-22T07:09:32.511Z,1.00
2018-04-22T07:11:59.960Z,1.00
2018-04-22T07:14:27.419Z,0.90
2018-04-22T07:16:54.876Z,1.00
2018-04-22T07:19:22.328Z,1.10
2018-04-22T07:21:49.791Z,1.03
2018-04-22T07:24:17.252Z,1.10
2018-04-22T07:26:44.686Z,1.10
2018-04-22T07:29:12.131Z,0.83
2018-04-22T07:31:39.584Z,0.90
2018-04-22T07:34:07.079Z,1.03
2018-04-22T07:36:34.630Z,0.90
2018-04-22T07:39:02.091Z,1.20
2018-04-22T07:41:29.544Z,0.90
2018-04-22T07:43:57.003Z,0.90
2018-04-22T07:46:24.470Z,0.90
2018-04-22T07:48:51.919Z,1.10
2018-04-22T07:51:19.370Z,0.73
2018-04-22T07:53:46.811Z,1.17
2018-04-22T07:56:14.896Z,1.10
2018-04-22T07:58:42.355Z,0.90
2018-04-22T08:01:09.817Z,1.00
2018-04-22T08:03:37.367Z,1.10
2018-04-22T08:06:04.828Z,0.90
2018-04-22T08:08:32.280Z,1.03
2018-04-22T08:10:59.723Z,0.90
2018-04-22T08:13:27.183Z,0.90
2018-04-22T08:15:54.631Z,0.83
2018-04-22T08:18:22.079Z,0.70
2018-04-22T08:20:49.531Z,0.77
2018-04-22T08:23:17.020Z,0.87
2018-04-22T08:25:44.464Z,0.90
2018-04-22T08:28:11.951Z,1.00
2018-04-22T08:30:39.363Z,1.10
2018-04-22T08:33:06.834Z,0.97
2018-04-22T08:35:34.279Z,1.00
2018-04-22T08:38:01.747Z,0.90
2018-04-22T08:40:29.211Z,0.87
2018-04-22T08:42:56.660Z,0.97
2018-04-22T08:45:24.111Z,0.90
2018-04-22T08:47:51.571Z,0.80
2018-04-22T08:50:19.027Z,0.90
2018-04-22T08:52:46.479Z,0.80
2018-04-22T08:55:13.928Z,0.90
2018-04-22T08:57:41.384Z,0.93
2018-04-22T09:00:09.452Z,0.83
2018-04-22T09:02:36.925Z,0.90
2018-04-22T09:05:04.368Z,0.90
2018-04-22T09:07:31.844Z,0.90
2018-04-22T09:09:59.287Z,0.83
2018-04-22T09:12:26.756Z,0.80
2018-04-22T09:14:54.302Z,0.90
2018-04-22T09:17:21.756Z,0.80
2018-04-22T09:19:49.215Z,0.90
2018-04-22T09:22:16.675Z,0.57
2018-04-22T09:24:44.507Z,0.80
2018-04-22T09:27:11.956Z,0.97
2018-04-22T09:29:39.411Z,1.00
2018-04-22T09:32:06.859Z,0.80
2018-04-22T09:34:35.066Z,1.00
2018-04-22T09:37:02.531Z,0.87
2018-04-22T09:39:29.991Z,0.93
2018-04-22T09:41:57.443Z,0.87
2018-04-22T09:44:24.907Z,0.80
2018-04-22T09:46:52.355Z,1.00
2018-04-22T09:49:19.815Z,1.00
2018-04-22T09:51:47.267Z,0.83
2018-04-22T09:54:14.728Z,0.83
2018-04-22T09:56:42.183Z,0.73
2018-04-22T09:59:09.638Z,0.70
2018-04-22T10:01:37.100Z,0.90
2018-04-22T10:04:10.536Z,1.00
2018-04-22T10:06:38.771Z,0.90
2018-04-22T10:09:06.222Z,0.80
2018-04-22T10:11:33.682Z,0.90
2018-04-22T10:14:01.239Z,0.93
2018-04-22T10:16:28.712Z,0.77
2018-04-22T10:18:56.139Z,0.70
2018-04-22T10:21:23.611Z,0.90
2018-04-22T10:23:51.066Z,0.80
2018-04-22T10:26:18.508Z,0.80
2018-04-22T10:28:45.973Z,0.80
2018-04-22T10:31:13.419Z,0.90
2018-04-22T10:33:40.884Z,0.77
2018-04-22T10:36:08.383Z,0.80
2018-04-22T10:38:35.811Z,1.00
2018-04-22T10:41:04.764Z,0.77
2018-04-22T10:43:32.220Z,0.70
2018-04-22T10:45:59.696Z,0.80
2018-04-22T10:48:27.147Z,0.80
2018-04-22T10:50:54.612Z,0.80
2018-04-22T10:53:22.179Z,0.80
2018-04-22T10:55:49.628Z,0.90
2018-04-22T10:58:17.153Z,0.80
2018-04-22T11:00:44.654Z,0.80
2018-04-22T11:03:13.619Z,0.90
2018-04-22T11:05:41.059Z,0.80
2018-04-22T11:08:08.547Z,0.80
2018-04-22T11:10:36.102Z,0.70
2018-04-22T11:13:03.630Z,0.90
2018-04-22T11:15:31.127Z,0.80
2018-04-22T11:17:59.340Z,0.80
2018-04-22T11:20:26.790Z,0.80
2018-04-22T11:22:55.008Z,0.60
2018-04-22T11:25:22.474Z,0.80
2018-04-22T11:27:49.935Z,0.60
2018-04-22T11:30:17.496Z,0.90
2018-04-22T11:32:44.944Z,0.97
2018-04-22T11:35:12.401Z,0.80
2018-04-22T11:37:39.859Z,0.70
2018-04-22T11:40:07.427Z,0.70
2018-04-22T11:42:34.879Z,0.73
2018-04-22T11:45:02.611Z,0.73
2018-04-22T11:47:30.057Z,0.70
2018-04-22T11:49:57.512Z,0.80
2018-04-22T11:52:24.952Z,0.70
2018-04-22T11:54:52.407Z,0.70
2018-04-22T11:57:20.635Z,0.90
2018-04-22T11:59:48.203Z,0.73
2018-04-22T12:02:15.634Z,0.77
2018-04-22T12:04:43.104Z,0.70
2018-04-22T12:07:10.664Z,0.60
2018-04-22T12:09:38.219Z,0.70
2018-04-22T12:12:05.671Z,0.80
2018-04-22T12:14:33.236Z,0.73
2018-04-22T12:17:00.698Z,0.70
2018-04-22T12:19:28.253Z,0.73
2018-04-22T12:21:56.719Z,0.70
2018-04-22T12:24:24.170Z,0.80
2018-04-22T12:26:51.644Z,0.70
2018-04-22T12:29:19.203Z,0.80
2018-04-22T12:31:46.769Z,0.90
2018-04-22T12:34:14.227Z,0.73
2018-04-22T12:36:41.773Z,0.70
2018-04-22T12:39:09.230Z,0.70
2018-04-22T12:41:36.683Z,0.70
2018-04-22T12:44:04.258Z,0.80
2018-04-22T12:46:31.711Z,0.70
2018-04-22T12:48:59.180Z,0.70
2018-04-22T12:51:26.712Z,0.77
2018-04-22T12:53:54.172Z,0.93
2018-04-22T12:56:21.623Z,1.30
2018-04-22T12:58:49.075Z,1.27
2018-04-22T13:01:16.643Z,1.00
2018-04-22T13:03:44.199Z,1.20
2018-04-22T13:06:11.655Z,1.20
2018-04-22T13:08:39.231Z,1.90
2018-04-22T13:11:06.691Z,1.53
2018-04-22T13:13:34.149Z,1.27
2018-04-22T13:16:01.600Z,1.60
2018-04-22T13:18:29.056Z,1.10
2018-04-22T13:20:56.595Z,1.53
2018-04-22T13:23:24.048Z,1.10
2018-04-22T13:25:51.504Z,1.37
2018-04-22T13:28:18.967Z,1.30
2018-04-22T13:30:46.524Z,1.27
2018-04-22T13:33:14.083Z,1.30
2018-04-22T13:35:41.634Z,1.07
2018-04-22T13:38:09.101Z,1.03
2018-04-22T13:40:36.569Z,1.10
2018-04-22T13:43:04.048Z,1.00
2018-04-22T13:45:31.515Z,1.40
2018-04-22T13:47:59.016Z,1.17
2018-04-22T13:50:26.472Z,1.40
2018-04-22T13:52:53.916Z,0.90
2018-04-22T13:55:21.368Z,1.30
2018-04-22T13:57:48.839Z,1.50
2018-04-22T14:00:16.296Z,1.40
2018-04-22T14:02:43.820Z,1.90
2018-04-22T14:05:11.263Z,2.63
2018-04-22T14:07:38.763Z,4.87
2018-04-22T14:10:06.328Z,17.73
2018-04-22T14:12:33.884Z,11.20
2018-04-22T14:15:01.448Z,6.00
2018-04-22T14:17:28.891Z,4.17
2018-04-22T14:19:56.343Z,5.20
2018-04-22T14:22:23.818Z,5.53
2018-04-22T14:24:51.427Z,5.63
2018-04-22T14:27:18.927Z,6.00
2018-04-22T14:29:47.064Z,5.80
2018-04-22T14:32:14.550Z,5.40
2018-04-22T14:34:42.000Z,5.87
2018-04-22T14:37:09.468Z,5.83
2018-04-22T14:39:36.919Z,5.00
2018-04-22T14:42:04.381Z,5.40
2018-04-22T14:44:43.710Z,5.23
2018-04-22T14:47:11.107Z,4.57
2018-04-22T14:49:38.551Z,4.80
2018-04-22T14:52:06.775Z,4.10
2018-04-22T14:54:34.215Z,4.60
2018-04-22T14:57:01.671Z,4.37
2018-04-22T14:59:29.128Z,4.77
2018-04-22T15:01:56.616Z,4.93
2018-04-22T15:04:24.071Z,4.40
2018-04-22T15:06:51.636Z,4.97
2018-04-22T15:09:19.087Z,3.73
2018-04-22T15:11:46.642Z,4.50
2018-04-22T15:14:14.203Z,4.47
2018-04-22T15:16:41.925Z,4.20
2018-04-22T15:19:09.376Z,4.50
2018-04-22T15:21:36.885Z,4.63
2018-04-22T15:24:04.416Z,5.77
2018-04-22T15:26:31.896Z,5.17
2018-04-22T15:28:59.351Z,4.50
2018-04-22T15:31:26.907Z,4.80
2018-04-22T15:33:54.496Z,4.70
2018-04-22T15:36:22.723Z,4.27
2018-04-22T15:38:50.195Z,4.27
2018-04-22T15:41:17.803Z,4.37
2018-04-22T15:43:46.031Z,3.70
2018-04-22T15:46:13.486Z,3.73
2018-04-22T15:48:40.942Z,4.23
2018-04-22T15:51:08.503Z,3.70
2018-04-22T15:53:35.959Z,3.43
2018-04-22T15:56:03.417Z,3.70
2018-04-22T15:58:30.872Z,3.20
2018-04-22T16:00:58.329Z,3.60
2018-04-22T16:03:25.851Z,3.83
2018-04-22T16:05:53.315Z,3.13
2018-04-22T16:08:20.870Z,3.30
2018-04-22T16:10:48.317Z,3.10
2018-04-22T16:13:15.767Z,3.03
2018-04-22T16:15:43.220Z,3.50
2018-04-22T16:18:10.674Z,3.60
2018-04-22T16:20:38.284Z,2.60
2018-04-22T16:23:05.837Z,2.70
2018-04-22T16:25:33.280Z,3.20
2018-04-22T16:28:00.748Z,3.10
2018-04-22T16:30:28.273Z,2.83
2018-04-22T16:32:55.711Z,2.73
2018-04-22T16:35:23.185Z,2.80
2018-04-22T16:37:51.384Z,3.30
2018-04-22T16:40:18.828Z,3.40
2018-04-22T16:42:46.292Z,2.70
2018-04-22T16:45:13.739Z,2.63
2018-04-22T16:47:41.191Z,2.47
2018-04-22T16:50:08.639Z,2.13
2018-04-22T16:52:36.129Z,2.83
2018-04-22T16:55:03.571Z,2.60
2018-04-22T16:57:31.033Z,2.57
2018-04-22T16:59:58.492Z,2.50
2018-04-22T17:02:26.050Z,2.30
2018-04-22T17:04:53.503Z,2.60
2018-04-22T17:07:20.970Z,2.50
2018-04-22T17:09:48.523Z,2.67
2018-04-22T17:12:16.080Z,2.50
2018-04-22T17:14:43.531Z,2.53
2018-04-22T17:17:11.004Z,2.87
2018-04-22T17:19:38.460Z,2.50
2018-04-22T17:22:07.450Z,2.93
2018-04-22T17:24:34.994Z,2.17
2018-04-22T17:27:02.557Z,2.67
2018-04-22T17:29:30.007Z,2.20
2018-04-22T17:31:57.463Z,2.83
2018-04-22T17:34:24.915Z,2.43
2018-04-22T17:36:52.368Z,2.40
2018-04-22T17:39:19.832Z,2.50
2018-04-22T17:41:47.283Z,2.27
2018-04-22T17:44:14.747Z,2.60
2018-04-22T17:46:42.187Z,3.10
2018-04-22T17:49:09.656Z,2.70
2018-04-22T17:51:37.391Z,2.37
2018-04-22T17:54:04.948Z,2.50
2018-04-22T17:56:32.379Z,2.47
2018-04-22T17:59:00.594Z,2.40
2018-04-22T18:01:28.140Z,2.50
2018-04-22T18:03:56.431Z,2.70
2018-04-22T18:06:23.892Z,2.57
2018-04-22T18:08:51.452Z,2.70
2018-04-22T18:11:18.982Z,2.30
2018-04-22T18:13:46.426Z,2.30
2018-04-22T18:16:13.875Z,2.30
2018-04-22T18:18:41.332Z,2.10
2018-04-22T18:21:08.779Z,2.10
2018-04-22T18:23:37.003Z,2.10
2018-04-22T18:26:04.447Z,2.60
2018-04-22T18:28:31.919Z,2.50
2018-04-22T18:30:59.368Z,2.23
2018-04-22T18:33:26.834Z,3.10
2018-04-22T18:35:54.291Z,2.63
2018-04-22T18:38:21.752Z,2.20
2018-04-22T18:40:49.500Z,2.80
2018-04-22T18:43:16.955Z,2.60
2018-04-22T18:45:44.419Z,2.50
2018-04-22T18:48:11.980Z,2.23
2018-04-22T18:50:39.423Z,2.53
2018-04-22T18:53:06.885Z,1.73
2018-04-22T18:55:34.345Z,2.20
2018-04-22T18:58:01.796Z,2.13
2018-04-22T19:00:29.248Z,2.70
2018-04-22T19:02:56.704Z,2.47
2018-04-22T19:05:24.154Z,2.10
2018-04-22T19:07:51.624Z,2.17
2018-04-22T19:10:19.075Z,2.60
2018-04-22T19:12:46.539Z,2.03
2018-04-22T19:15:13.991Z,2.40
2018-04-22T19:17:41.455Z,2.30
2018-04-22T19:20:08.908Z,2.17
2018-04-22T19:22:36.376Z,2.43
2018-04-22T19:25:03.832Z,2.50
2018-04-22T19:27:31.381Z,2.53
2018-04-22T19:29:58.846Z,2.90
2018-04-22T19:32:26.292Z,2.70
2018-04-22T19:34:53.848Z,2.40
2018-04-22T19:37:21.296Z,2.40
2018-04-22T19:39:48.751Z,2.40
2018-04-22T19:42:16.208Z,3.30
2018-04-22T19:44:43.669Z,2.53
2018-04-22T19:47:11.125Z,2.50
2018-04-22T19:49:38.575Z,2.27
2018-04-22T19:52:06.033Z,2.53
2018-04-22T19:54:33.488Z,2.53
2018-04-22T19:57:00.961Z,2.47
2018-04-22T19:59:28.507Z,1.80
2018-04-22T20:01:55.956Z,2.50
2018-04-22T20:04:23.412Z,2.53
2018-04-22T20:06:50.863Z,2.30
2018-04-22T20:09:18.333Z,2.47
2018-04-22T20:11:45.889Z,2.80
2018-04-22T20:14:13.445Z,2.93
2018-04-22T20:16:40.887Z,2.50
2018-04-22T20:19:08.357Z,2.30
2018-04-22T20:21:35.807Z,2.53
2018-04-22T20:24:03.272Z,2.33
2018-04-22T20:26:31.540Z,2.10
2018-04-22T20:28:58.996Z,2.00
2018-04-22T20:31:26.456Z,2.30
2018-04-22T20:33:54.727Z,2.73
2018-04-22T20:36:22.180Z,2.63
2018-04-22T20:38:49.649Z,2.40
2018-04-22T20:41:17.203Z,2.40
2018-04-22T20:43:44.663Z,2.00
2018-04-22T20:46:12.112Z,2.43
2018-04-22T20:48:39.667Z,2.33
2018-04-22T20:51:07.115Z,2.20
2018-04-22T20:53:34.567Z,2.13
2018-04-22T20:56:02.023Z,2.37
2018-04-22T20:58:29.483Z,2.27
2018-04-22T21:00:56.945Z,2.20
2018-04-22T21:03:24.448Z,2.40
2018-04-22T21:05:51.864Z,2.13
2018-04-22T21:08:19.316Z,2.27
2018-04-22T21:10:46.786Z,2.07
2018-04-22T21:13:15.032Z,2.30
2018-04-22T21:15:42.497Z,2.23
2018-04-22T21:18:09.944Z,2.37
2018-04-22T21:20:37.406Z,2.00
2018-04-22T21:23:06.361Z,2.30
2018-04-22T21:25:33.823Z,2.10
2018-04-22T21:28:01.310Z,1.97
2018-04-22T21:30:28.772Z,2.20
2018-04-22T21:32:56.221Z,2.17
2018-04-22T21:35:25.187Z,2.17
2018-04-22T21:37:52.640Z,1.70
2018-04-22T21:40:20.124Z,2.00
2018-04-22T21:42:47.583Z,2.20
2018-04-22T21:45:15.040Z,1.93
2018-04-22T21:47:42.967Z,2.27
2018-04-22T21:50:10.457Z,2.17
2018-04-22T21:52:37.911Z,2.10
2018-04-22T21:55:05.382Z,2.37
2018-04-22T21:57:33.608Z,2.13
2018-04-22T22:00:01.080Z,2.07
2018-04-22T22:02:28.552Z,2.10
2018-04-22T22:04:56.011Z,2.30
2018-04-22T22:07:23.472Z,1.77
2018-04-22T22:09:51.007Z,2.23
2018-04-22T22:12:18.460Z,2.10
2018-04-22T22:14:45.925Z,2.00
2018-04-22T22:17:13.384Z,1.87
2018-04-22T22:19:40.850Z,1.63
2018-04-22T22:22:08.304Z,2.00
2018-04-22T22:24:35.771Z,1.77
2018-04-22T22:27:03.225Z,2.07
2018-04-22T22:29:30.688Z,1.77
2018-04-22T22:31:58.901Z,2.20
2018-04-22T22:34:26.365Z,2.07
2018-04-22T22:36:53.820Z,1.80
2018-04-22T22:39:21.277Z,2.10
2018-04-22T22:41:48.763Z,1.70
2018-04-22T22:44:17.732Z,2.17
2018-04-22T22:46:45.190Z,1.97
2018-04-22T22:49:12.640Z,2.33
2018-04-22T22:51:40.100Z,1.90
2018-04-22T22:54:07.548Z,1.70
2018-04-22T22:56:35.008Z,1.93
2018-04-22T22:59:02.483Z,1.97
2018-04-22T23:01:29.939Z,1.90
2018-04-22T23:03:57.388Z,1.90
2018-04-22T23:06:24.847Z,2.00
2018-04-22T23:08:52.301Z,2.03
2018-04-22T23:11:19.767Z,1.90
2018-04-22T23:13:47.213Z,1.77
2018-04-22T23:16:14.668Z,2.27
2018-04-22T23:18:42.125Z,2.00
2018-04-22T23:21:09.583Z,1.40
2018-04-22T23:23:37.036Z,1.90
2018-04-22T23:26:04.492Z,1.83
2018-04-22T23:28:32.043Z,1.67
2018-04-22T23:30:59.499Z,1.70
2018-04-22T23:33:27.060Z,1.93
2018-04-22T23:35:54.526Z,2.20
2018-04-22T23:38:21.974Z,1.90
2018-04-22T23:40:49.432Z,1.80
2018-04-22T23:43:16.883Z,2.47
2018-04-22T23:45:44.344Z,1.67
2018-04-22T23:48:11.797Z,1.77
2018-04-22T23:50:39.257Z,1.70
2018-04-22T23:53:06.706Z,1.77
2018-04-22T23:55:34.164Z,1.90
2018-04-22T23:58:01.618Z,1.80
